Time;durP1;ratioP1;P1;durP2;ratioP2;P2;SDS_P1;SDS_P2;PMS_P1;PMS_P2;Temp;Humidity;BMP_temperature;BMP_pressure;BME280_temperature;BME280_humidity;BME280_pressure;Samples;Min_cycle;Max_cycle;Signal;HPM_P1;HPM_P2
2022/01/09 00:00:32;;;;;;;0.40;0.30;;;;;;;0.89;93.10;99403.56;5095635;28;20444;-72
2022/01/09 00:03:00;;;;;;;0.40;0.30;;;;;;;0.94;93.18;99399.03;5095196;28;20571;-72
2022/01/09 00:05:26;;;;;;;0.40;0.30;;;;;;;0.86;92.08;99390.75;5095213;28;20917;-72
2022/01/09 00:07:53;;;;;;;0.40;0.30;;;;;;;0.85;93.20;99387.31;5095497;28;20443;-72
2022/01/09 00:10:20;;;;;;;0.40;0.30;;;;;;;0.84;92.72;99385.72;5095459;28;20527;-72
2022/01/09 00:12:47;;;;;;;0.40;0.30;;;;;;;0.79;92.86;99375.03;5094944;28;21009;-72
2022/01/09 00:15:13;;;;;;;0.40;0.30;;;;;;;0.88;93.76;99380.63;5095376;28;20440;-72
2022/01/09 00:17:40;;;;;;;0.40;0.30;;;;;;;0.85;92.60;99370.53;5095316;28;20490;-72
2022/01/09 00:20:11;;;;;;;0.40;0.30;;;;;;;0.82;92.41;99369.16;5095539;28;20457;-72
2022/01/09 00:22:42;;;;;;;0.40;0.30;;;;;;;0.88;91.97;99364.63;5095496;28;20499;-72
2022/01/09 00:25:09;;;;;;;0.40;0.30;;;;;;;0.93;92.53;99357.47;5095216;28;20429;-72
2022/01/09 00:27:37;;;;;;;0.40;0.30;;;;;;;0.90;91.67;99354.53;5095120;28;20444;-73
2022/01/09 00:30:04;;;;;;;0.40;0.30;;;;;;;0.94;92.04;99347.59;5095094;28;20883;-72
2022/01/09 00:32:31;;;;;;;0.40;0.30;;;;;;;0.98;91.87;99344.13;5094523;28;20992;-72
2022/01/09 00:34:57;;;;;;;0.40;0.30;;;;;;;1.03;91.75;99340.66;5095024;28;20440;-72
2022/01/09 00:37:25;;;;;;;0.40;0.30;;;;;;;1.03;91.42;99347.84;5094853;28;20497;-72
2022/01/09 00:39:52;;;;;;;0.40;0.30;;;;;;;1.03;91.71;99342.50;5094869;28;20447;-72
2022/01/09 00:42:19;;;;;;;0.40;0.30;;;;;;;1.05;90.76;99338.50;5094774;28;20864;-72
2022/01/09 00:44:45;;;;;;;0.40;0.30;;;;;;;1.07;91.42;99333.72;5094842;28;20855;-72
2022/01/09 00:47:12;;;;;;;0.40;0.30;;;;;;;1.12;90.91;99330.22;5094736;28;20440;-72
2022/01/09 00:49:38;;;;;;;0.40;0.30;;;;;;;1.09;90.93;99333.44;5094386;28;20444;-72
2022/01/09 00:52:05;;;;;;;0.40;0.30;;;;;;;1.10;91.29;99325.16;5093929;28;20479;-72
2022/01/09 00:54:33;;;;;;;0.40;0.30;;;;;;;1.05;90.62;99319.84;5094597;28;20440;-72
2022/01/09 00:56:59;;;;;;;0.40;0.30;;;;;;;1.10;90.06;99317.16;5094589;28;20440;-72
2022/01/09 00:59:26;;;;;;;0.40;0.30;;;;;;;1.04;89.62;99315.56;5094484;28;20448;-72
2022/01/09 01:01:52;;;;;;;0.40;0.30;;;;;;;1.04;89.58;99315.56;5093994;28;20468;-72
2022/01/09 01:04:19;;;;;;;0.40;0.30;;;;;;;1.04;90.21;99304.91;5094456;28;20435;-72
2022/01/09 01:06:45;;;;;;;0.40;0.30;;;;;;;0.91;89.77;99305.47;5094392;28;20511;-72
2022/01/09 01:09:12;;;;;;;0.40;0.30;;;;;;;0.95;90.02;99302.00;5094351;28;20463;-72
2022/01/09 01:11:39;;;;;;;0.40;0.30;;;;;;;0.96;89.90;99308.13;5094093;28;20444;-72
2022/01/09 01:14:06;;;;;;;0.40;0.30;;;;;;;0.90;89.42;99301.22;5094264;28;20440;-72
2022/01/09 01:16:32;;;;;;;0.40;0.30;;;;;;;0.88;89.83;99300.66;5094180;28;20436;-72
2022/01/09 01:19:00;;;;;;;0.40;0.30;;;;;;;0.77;89.29;99297.22;5095520;28;20444;-72
2022/01/09 01:21:27;;;;;;;0.40;0.30;;;;;;;0.83;90.04;99298.81;5094049;28;20448;-72
2022/01/09 01:23:53;;;;;;;0.40;0.30;;;;;;;0.90;89.33;99285.22;5093999;28;20460;-72
2022/01/09 01:26:20;;;;;;;0.40;0.30;;;;;;;0.92;90.07;99288.41;5094042;28;20490;-72
2022/01/09 01:28:48;;;;;;;0.40;0.30;;;;;;;0.99;89.40;99280.94;5093923;28;20436;-72
2022/01/09 01:31:14;;;;;;;0.40;0.30;;;;;;;1.01;89.60;99278.78;5093706;28;20433;-72
2022/01/09 01:33:41;;;;;;;0.40;0.30;;;;;;;1.00;89.06;99279.84;5093438;28;20491;-72
2022/01/09 01:36:07;;;;;;;0.40;0.30;;;;;;;1.06;88.42;99270.75;5093865;28;20449;-72
2022/01/09 01:38:34;;;;;;;0.40;0.30;;;;;;;1.07;88.00;99267.06;5093765;28;20440;-72
2022/01/09 01:41:01;;;;;;;0.40;0.30;;;;;;;1.00;87.45;99266.53;5093761;28;20471;-72
2022/01/09 01:43:28;;;;;;;0.40;0.30;;;;;;;0.95;88.47;99267.34;5093600;28;20468;-72
2022/01/09 01:45:56;;;;;;;0.40;0.30;;;;;;;0.91;88.95;99257.47;5093711;28;20440;-72
2022/01/09 01:48:22;;;;;;;0.40;0.30;;;;;;;0.93;88.94;99255.34;5093358;28;20957;-72
2022/01/09 01:50:49;;;;;;;0.40;0.30;;;;;;;0.96;89.23;99244.13;5093305;28;20818;-70
2022/01/09 01:53:18;;;;;;;0.50;0.30;;;;;;;0.97;88.22;99238.56;5093459;28;20495;-71
2022/01/09 01:55:48;;;;;;;0.40;0.30;;;;;;;0.98;88.15;99242.03;5093524;28;20444;-71
2022/01/09 01:58:14;;;;;;;0.40;0.30;;;;;;;0.97;88.46;99240.41;5093553;28;20498;-71
2022/01/09 02:00:42;;;;;;;0.40;0.30;;;;;;;0.83;88.07;99234.03;5093489;28;20453;-71
2022/01/09 02:03:10;;;;;;;0.40;0.40;;;;;;;0.80;88.67;99229.25;5092093;28;20472;-71
2022/01/09 02:05:37;;;;;;;0.40;0.30;;;;;;;0.88;89.30;99236.69;5093443;28;20450;-71
2022/01/09 02:08:04;;;;;;;0.40;0.30;;;;;;;0.96;89.02;99222.81;5093405;28;20440;-72
2022/01/09 02:10:31;;;;;;;0.40;0.30;;;;;;;0.92;89.10;99214.56;5093373;28;20436;-71
2022/01/09 02:12:58;;;;;;;0.40;0.30;;;;;;;0.96;88.63;99214.81;5092933;28;20484;-72
2022/01/09 02:15:36;;;;;;;0.40;0.30;;;;;;;1.00;88.55;99223.88;5092669;28;20448;-71
2022/01/09 02:18:05;;;;;;;0.40;0.30;;;;;;;0.99;88.44;99220.41;5092960;28;20796;-71
2022/01/09 02:20:33;;;;;;;1.93;1.83;;;;;;;0.95;88.74;99215.91;5093317;28;20444;-71
2022/01/09 02:22:59;;;;;;;0.40;0.30;;;;;;;0.95;88.28;99210.56;5092812;28;20836;-71
2022/01/09 02:25:27;;;;;;;0.40;0.30;;;;;;;0.94;88.82;99209.78;5093288;28;20447;-72
2022/01/09 02:27:54;;;;;;;0.40;0.20;;;;;;;0.98;88.72;99215.38;5093216;28;20440;-71
2022/01/09 02:30:20;;;;;;;0.40;0.30;;;;;;;1.00;88.91;99210.53;5093197;28;20448;-72
2022/01/09 02:32:47;;;;;;;0.40;0.30;;;;;;;1.03;88.92;99203.88;5093062;28;20545;-72
2022/01/09 02:35:13;;;;;;;0.40;0.27;;;;;;;1.04;89.62;99197.47;5093176;28;20436;-71
2022/01/09 02:37:41;;;;;;;0.40;0.30;;;;;;;0.96;90.21;99188.97;5093144;28;20807;-71
2022/01/09 02:40:09;;;;;;;0.40;0.30;;;;;;;1.03;89.21;99198.56;5093065;28;20443;-75
2022/01/09 02:42:35;;;;;;;0.40;0.30;;;;;;;1.00;88.66;99192.69;5093006;28;20458;-73
2022/01/09 02:45:03;;;;;;;0.40;0.30;;;;;;;0.99;88.08;99184.97;5092733;28;20956;-73
2022/01/09 02:47:32;;;;;;;0.40;0.30;;;;;;;1.01;89.66;99182.81;5093033;28;20451;-73
2022/01/09 02:50:08;;;;;;;0.40;0.30;;;;;;;0.99;89.28;99184.97;5092994;28;20448;-73
2022/01/09 02:52:36;;;;;;;0.40;0.30;;;;;;;0.99;88.86;99179.63;5093116;28;20579;-73
2022/01/09 02:55:05;;;;;;;0.40;0.20;;;;;;;0.99;88.67;99174.31;5092918;28;20452;-73
2022/01/09 02:57:32;;;;;;;0.40;0.30;;;;;;;1.00;89.18;99174.00;5092960;28;20884;-73
2022/01/09 02:59:59;;;;;;;0.40;0.30;;;;;;;0.92;88.56;99179.91;5092909;28;20489;-73
2022/01/09 03:02:26;;;;;;;0.40;0.30;;;;;;;0.87;89.25;99169.25;5092511;28;20896;-73
2022/01/09 03:04:52;;;;;;;0.40;0.30;;;;;;;0.91;89.79;99164.19;5092867;28;20436;-73
2022/01/09 03:07:18;;;;;;;0.40;0.30;;;;;;;0.93;88.61;99164.72;5092840;28;20444;-71
2022/01/09 03:09:45;;;;;;;0.40;0.30;;;;;;;0.88;88.64;99162.06;5092871;28;20517;-73
2022/01/09 03:12:13;;;;;;;0.40;0.30;;;;;;;0.77;88.82;99161.31;5092761;28;20471;-72
2022/01/09 03:14:39;;;;;;;0.40;0.30;;;;;;;0.73;89.04;99153.06;5094689;28;20440;-71
2022/01/09 03:17:05;;;;;;;0.40;0.30;;;;;;;0.77;89.71;99147.19;5096509;28;20444;-70
2022/01/09 03:19:32;;;;;;;0.40;0.30;;;;;;;0.78;89.44;99141.59;5096473;28;20447;-71
2022/01/09 03:21:58;;;;;;;0.40;0.30;;;;;;;0.78;89.87;99148.78;5096357;28;20460;-71
2022/01/09 03:24:25;;;;;;;0.40;0.30;;;;;;;0.78;89.22;99138.91;5096049;28;20816;-71
2022/01/09 03:26:51;;;;;;;0.40;0.30;;;;;;;0.80;89.48;99133.31;5096290;28;20450;-71
2022/01/09 03:29:19;;;;;;;0.40;0.30;;;;;;;0.83;89.21;99127.44;5096312;28;20447;-71
2022/01/09 03:31:45;;;;;;;0.83;0.83;;;;;;;0.84;89.60;99129.84;5095867;28;20956;-71
2022/01/09 03:34:11;;;;;;;0.40;0.30;;;;;;;0.81;89.78;99117.06;5096100;28;20487;-71
2022/01/09 03:36:38;;;;;;;0.40;0.30;;;;;;;0.88;89.29;99119.41;5096118;28;20452;-71
2022/01/09 03:39:04;;;;;;;0.40;0.30;;;;;;;0.84;89.22;99121.84;5096073;28;20480;-71
2022/01/09 03:41:31;;;;;;;0.40;0.30;;;;;;;0.78;89.37;99119.47;5096048;28;20444;-71
2022/01/09 03:43:57;;;;;;;0.40;0.30;;;;;;;0.80;89.60;99130.66;5095901;28;20822;-72
2022/01/09 03:46:25;;;;;;;0.40;0.30;;;;;;;0.78;89.46;99124.81;5095961;28;20440;-72
2022/01/09 03:48:52;;;;;;;0.40;0.30;;;;;;;0.85;89.75;99125.31;5095907;28;20494;-71
2022/01/09 03:51:18;;;;;;;0.40;0.30;;;;;;;0.86;89.54;99117.03;5095574;28;20945;-72
2022/01/09 03:53:45;;;;;;;0.40;0.30;;;;;;;0.87;89.26;99117.84;5095691;28;20495;-71
2022/01/09 03:56:11;;;;;;;0.40;0.30;;;;;;;0.91;89.23;99124.22;5095732;28;20440;-72
2022/01/09 03:58:38;;;;;;;1.17;1.17;;;;;;;0.86;88.89;99111.72;5095753;28;20435;-72
2022/01/09 04:01:06;;;;;;;0.40;0.40;;;;;;;0.86;89.15;99110.91;5095350;28;20827;-72
2022/01/09 04:03:34;;;;;;;0.40;0.30;;;;;;;0.93;89.63;99112.22;5095191;28;20504;-72
2022/01/09 04:06:01;;;;;;;0.40;0.30;;;;;;;0.83;90.15;99101.59;5095555;28;20444;-72
2022/01/09 04:08:28;;;;;;;0.40;0.30;;;;;;;0.85;90.42;99106.66;5095468;28;20480;-72
2022/01/09 04:10:56;;;;;;;0.40;0.30;;;;;;;0.87;90.18;99107.16;5095734;28;20838;-72
2022/01/09 04:13:22;;;;;;;0.40;0.30;;;;;;;0.85;90.76;99109.31;5095315;28;20519;-72
2022/01/09 04:15:49;;;;;;;0.40;0.30;;;;;;;0.88;90.56;99114.88;5095400;28;20441;-72
2022/01/09 04:18:17;;;;;;;0.40;0.30;;;;;;;0.89;89.61;99113.03;5095376;28;20470;-72
2022/01/09 04:20:45;;;;;;;0.40;0.30;;;;;;;0.88;90.16;99114.88;5095100;28;20462;-72
2022/01/09 04:23:12;;;;;;;0.40;0.30;;;;;;;0.87;90.64;99093.84;5095198;28;20460;-72
2022/01/09 04:25:39;;;;;;;0.40;0.30;;;;;;;0.90;90.42;99095.97;5094209;28;20464;-72
2022/01/09 04:28:06;;;;;;;0.40;0.30;;;;;;;0.89;90.08;99094.38;5095120;28;20448;-72
2022/01/09 04:30:32;;;;;;;0.40;0.20;;;;;;;0.84;90.23;99091.72;5095066;28;20440;-72
2022/01/09 04:32:59;;;;;;;0.40;0.30;;;;;;;0.81;89.14;99087.75;5094907;28;20488;-72
2022/01/09 04:35:25;;;;;;;0.40;0.30;;;;;;;0.81;89.49;99081.63;5095063;28;20440;-72
2022/01/09 04:37:54;;;;;;;0.40;0.30;;;;;;;0.79;89.53;99076.56;5094938;28;20440;-71
2022/01/09 04:40:21;;;;;;;0.40;0.30;;;;;;;0.83;89.51;99077.59;5094913;28;20451;-72
2022/01/09 04:42:51;;;;;;;0.40;0.30;;;;;;;0.85;89.69;99077.34;5094771;28;20468;-72
2022/01/09 04:45:19;;;;;;;0.40;0.30;;;;;;;0.82;89.78;99072.56;5095090;28;20436;-71
2022/01/09 04:47:47;;;;;;;0.40;0.20;;;;;;;0.75;88.61;99072.84;5094767;28;20476;-71
2022/01/09 04:50:18;;;;;;;0.40;0.30;;;;;;;0.72;89.62;99071.53;5094405;28;20956;-71
2022/01/09 04:52:45;;;;;;;0.40;0.30;;;;;;;0.75;90.12;99072.84;5094656;28;20461;-72
2022/01/09 04:55:13;;;;;;;0.40;0.30;;;;;;;0.79;90.62;99065.09;5094600;28;20447;-72
2022/01/09 04:57:40;;;;;;;0.40;0.30;;;;;;;0.80;90.13;99067.50;5094608;28;20440;-72
2022/01/09 05:00:08;;;;;;;0.40;0.30;;;;;;;0.80;89.92;99064.84;5094207;28;20934;-72
2022/01/09 05:02:35;;;;;;;0.40;0.30;;;;;;;0.73;89.33;99073.13;5094113;28;20483;-72
2022/01/09 05:05:02;;;;;;;0.40;0.30;;;;;;;0.80;89.49;99066.69;5094114;28;20440;-71
2022/01/09 05:07:28;;;;;;;0.40;0.30;;;;;;;0.78;89.80;99061.63;5094443;28;20807;-71
2022/01/09 05:09:54;;;;;;;1.47;1.37;;;;;;;0.79;89.43;99073.09;5094392;28;20447;-71
2022/01/09 05:12:22;;;;;;;0.40;0.30;;;;;;;0.74;88.64;99071.25;5094248;28;20460;-71
2022/01/09 05:14:49;;;;;;;0.40;0.30;;;;;;;0.79;89.01;99073.88;5094165;28;20582;-71
2022/01/09 05:17:15;;;;;;;0.40;0.30;;;;;;;0.82;89.37;99072.56;5094414;28;20444;-72
2022/01/09 05:19:42;;;;;;;0.40;0.30;;;;;;;0.80;89.37;99070.19;5094130;28;20440;-72
2022/01/09 05:22:09;;;;;;;0.40;0.30;;;;;;;0.89;89.60;99062.41;5094063;28;20474;-72
2022/01/09 05:24:36;;;;;;;0.40;0.30;;;;;;;0.83;89.33;99064.28;5093713;28;20444;-72
2022/01/09 05:27:02;;;;;;;0.40;0.30;;;;;;;0.84;89.27;99060.56;5094005;28;20440;-72
2022/01/09 05:29:30;;;;;;;0.40;0.30;;;;;;;0.86;89.04;99070.94;5094234;28;20443;-72
2022/01/09 05:31:56;;;;;;;0.40;0.30;;;;;;;0.89;88.38;99073.06;5093871;28;20456;-71
2022/01/09 05:34:23;;;;;;;0.40;0.30;;;;;;;0.90;88.54;99062.13;5093529;28;20996;-72
2022/01/09 05:36:49;;;;;;;0.40;0.30;;;;;;;0.99;88.53;99065.81;5093665;28;20490;-72
2022/01/09 05:39:16;;;;;;;0.40;0.30;;;;;;;1.03;88.46;99063.38;5093828;28;20444;-72
2022/01/09 05:41:44;;;;;;;0.40;0.30;;;;;;;0.96;88.17;99062.88;5093475;28;20441;-71
2022/01/09 05:44:11;;;;;;;0.40;0.30;;;;;;;0.93;88.04;99061.56;5093767;28;20861;-72
2022/01/09 05:46:39;;;;;;;0.40;0.30;;;;;;;0.95;88.20;99066.63;5093401;28;20821;-72
2022/01/09 05:49:05;;;;;;;0.40;0.30;;;;;;;1.01;87.99;99068.97;5093658;28;20811;-72
2022/01/09 05:51:32;;;;;;;0.40;0.30;;;;;;;1.00;87.95;99071.94;5093316;28;20959;-72
2022/01/09 05:53:58;;;;;;;0.40;0.30;;;;;;;0.99;88.44;99065.81;5093091;28;21012;-72
2022/01/09 05:56:24;;;;;;;1.03;1.03;;;;;;;1.06;88.06;99073.47;5093581;28;20466;-71
2022/01/09 05:58:51;;;;;;;0.40;0.30;;;;;;;1.01;88.23;99063.63;5093530;28;20451;-70
2022/01/09 06:01:17;;;;;;;0.57;0.57;;;;;;;1.07;87.74;99068.97;5093499;28;20802;-71
2022/01/09 06:03:45;;;;;;;0.70;0.70;;;;;;;1.06;87.72;99073.47;5093089;28;20473;-71
2022/01/09 06:06:12;;;;;;;0.40;0.30;;;;;;;1.06;87.69;99070.03;5093438;28;20432;-72
2022/01/09 06:08:38;;;;;;;0.40;0.30;;;;;;;1.18;87.68;99067.81;5093487;28;20467;-72
2022/01/09 06:11:04;;;;;;;0.40;0.30;;;;;;;1.20;87.20;99063.03;5093081;28;20515;-72
2022/01/09 06:13:31;;;;;;;0.40;0.30;;;;;;;1.25;86.98;99068.31;5093252;28;20488;-72
2022/01/09 06:15:57;;;;;;;0.40;0.30;;;;;;;1.22;87.42;99063.53;5093321;28;20478;-69
2022/01/09 06:18:24;;;;;;;0.40;0.30;;;;;;;1.29;86.69;99066.69;5093361;28;20489;-70
2022/01/09 06:20:51;;;;;;;0.40;0.30;;;;;;;1.33;86.76;99057.06;5093308;28;20444;-72
2022/01/09 06:23:20;;;;;;;0.40;0.30;;;;;;;1.37;86.33;99066.06;5093471;28;20860;-72
2022/01/09 06:25:47;;;;;;;0.40;0.30;;;;;;;1.43;87.02;99066.84;5093309;28;20456;-72
2022/01/09 06:28:14;;;;;;;0.40;0.20;;;;;;;1.46;86.21;99056.44;5093231;28;20482;-72
2022/01/09 06:30:40;;;;;;;0.40;0.30;;;;;;;1.49;86.22;99063.06;5092958;28;20997;-72
2022/01/09 06:33:07;;;;;;;0.40;0.30;;;;;;;1.50;86.13;99061.97;5093101;28;20513;-72
2022/01/09 06:35:33;;;;;;;0.50;0.30;;;;;;;1.49;85.53;99057.72;5093128;28;20492;-72
2022/01/09 06:38:01;;;;;;;0.50;0.30;;;;;;;1.54;86.21;99072.91;5093395;28;20445;-72
2022/01/09 06:40:28;;;;;;;0.40;0.30;;;;;;;1.55;86.37;99069.97;5093154;28;20790;-72
2022/01/09 06:42:54;;;;;;;0.40;0.30;;;;;;;1.46;85.37;99071.63;5093038;28;20464;-72
2022/01/09 06:45:22;;;;;;;0.40;0.30;;;;;;;1.49;85.30;99076.41;5093103;28;20443;-72
2022/01/09 06:47:48;;;;;;;0.40;0.30;;;;;;;1.47;85.44;99062.56;5093050;28;20539;-72
2022/01/09 06:50:15;;;;;;;0.40;0.20;;;;;;;1.43;85.33;99066.84;5096042;28;20429;-72
2022/01/09 06:52:42;;;;;;;0.40;0.30;;;;;;;1.47;85.59;99062.56;5096944;28;20467;-72
2022/01/09 06:55:11;;;;;;;0.40;0.30;;;;;;;1.42;85.76;99074.06;5096835;28;20503;-72
2022/01/09 06:57:39;;;;;;;0.40;0.30;;;;;;;1.49;86.29;99068.41;5096927;28;20440;-72
2022/01/09 07:00:09;;;;;;;0.40;0.30;;;;;;;1.49;85.88;99061.19;5097081;28;20535;-71
2022/01/09 07:02:35;;;;;;;3.03;2.73;;;;;;;1.58;85.96;99063.28;5096399;28;20859;-71
2022/01/09 07:05:02;;;;;;;0.40;0.30;;;;;;;1.55;85.20;99064.63;5096769;28;20437;-71
2022/01/09 07:07:28;;;;;;;0.40;0.30;;;;;;;1.49;85.38;99052.41;5096766;28;20448;-71
2022/01/09 07:09:54;;;;;;;0.40;0.30;;;;;;;1.47;85.54;99046.56;5096354;28;20837;-71
2022/01/09 07:12:22;;;;;;;0.40;0.27;;;;;;;1.49;85.96;99055.06;5096602;28;20514;-71
2022/01/09 07:14:49;;;;;;;0.40;0.30;;;;;;;1.48;85.33;99064.16;5096190;28;21061;-71
2022/01/09 07:17:15;;;;;;;0.40;0.20;;;;;;;1.49;85.17;99063.06;5098021;28;20440;-71
2022/01/09 07:19:42;;;;;;;0.40;0.30;;;;;;;1.49;85.97;99060.41;5096635;28;20452;-71
2022/01/09 07:22:08;;;;;;;0.40;0.30;;;;;;;1.56;85.57;99060.88;5096024;28;20977;-71
2022/01/09 07:24:35;;;;;;;0.40;0.30;;;;;;;1.61;85.92;99052.84;5096444;28;20447;-71
2022/01/09 07:27:02;;;;;;;0.40;0.20;;;;;;;1.60;85.38;99064.59;5096310;28;20440;-71
2022/01/09 07:29:29;;;;;;;0.40;0.30;;;;;;;1.57;85.59;99059.81;5096303;28;20842;-71
2022/01/09 07:31:56;;;;;;;0.40;0.30;;;;;;;1.63;85.62;99057.88;5095749;28;21042;-73
2022/01/09 07:34:22;;;;;;;0.40;0.30;;;;;;;1.57;85.63;99065.16;5096113;28;20479;-73
2022/01/09 07:36:49;;;;;;;0.40;0.20;;;;;;;1.64;85.51;99062.97;5096196;28;20444;-73
2022/01/09 07:39:16;;;;;;;0.40;0.30;;;;;;;1.69;85.06;99065.59;5096118;28;20936;-73
2022/01/09 07:41:43;;;;;;;0.40;0.30;;;;;;;1.77;85.15;99075.66;5095999;28;20452;-73
2022/01/09 07:44:10;;;;;;;0.40;0.30;;;;;;;1.69;84.54;99075.47;5095751;28;20949;-72
2022/01/09 07:46:38;;;;;;;0.40;0.20;;;;;;;1.72;84.53;99081.00;5095689;28;20820;-73
2022/01/09 07:49:04;;;;;;;0.40;0.20;;;;;;;1.80;84.83;99073.50;5095953;28;20448;-73
2022/01/09 07:51:31;;;;;;;0.40;0.30;;;;;;;1.79;85.47;99075.38;5095867;28;20451;-73
2022/01/09 07:53:57;;;;;;;0.40;0.30;;;;;;;1.81;84.32;99075.09;5095404;28;20985;-72
2022/01/09 07:56:24;;;;;;;0.40;0.30;;;;;;;1.85;83.25;99074.25;5095847;28;20432;-73
2022/01/09 07:58:50;;;;;;;0.40;0.30;;;;;;;1.86;83.45;99075.84;5095738;28;20448;-73
2022/01/09 08:01:16;;;;;;;0.40;0.23;;;;;;;1.86;83.49;99061.69;5095890;28;20436;-71
2022/01/09 08:03:44;;;;;;;4.07;3.80;;;;;;;1.88;84.08;99072.88;5095139;28;20480;-71
2022/01/09 08:06:10;;;;;;;0.40;0.30;;;;;;;1.91;83.53;99073.13;5095640;28;20472;-72
2022/01/09 08:08:37;;;;;;;0.40;0.30;;;;;;;1.88;83.04;99078.22;5095744;28;20436;-71
2022/01/09 08:11:03;;;;;;;0.40;0.30;;;;;;;1.92;83.40;99069.38;5095557;28;20440;-71
2022/01/09 08:13:30;;;;;;;0.40;0.30;;;;;;;1.97;83.31;99071.19;5095064;28;20987;-71
2022/01/09 08:15:57;;;;;;;0.40;0.30;;;;;;;1.92;83.23;99072.06;5095331;28;20850;-71
2022/01/09 08:18:23;;;;;;;0.40;0.30;;;;;;;2.02;83.77;99071.16;5095587;28;20444;-71
2022/01/09 08:20:51;;;;;;;0.40;0.30;;;;;;;2.01;83.38;99069.56;5095369;28;20440;-71
2022/01/09 08:23:17;;;;;;;0.47;0.40;;;;;;;2.03;83.06;99067.41;5095212;28;20805;-71
2022/01/09 08:25:44;;;;;;;0.40;0.30;;;;;;;2.10;82.35;99065.19;5094928;28;20871;-69
2022/01/09 08:28:10;;;;;;;0.40;0.30;;;;;;;2.08;82.21;99067.38;5095154;28;20452;-68
2022/01/09 08:30:37;;;;;;;0.40;0.30;;;;;;;2.14;81.51;99068.09;5095188;28;20439;-69
2022/01/09 08:33:04;;;;;;;0.40;0.30;;;;;;;2.17;82.22;99080.88;5095001;28;20495;-68
2022/01/09 08:35:30;;;;;;;0.40;0.30;;;;;;;2.13;82.71;99075.31;5094943;28;20484;-69
2022/01/09 08:37:58;;;;;;;0.40;0.30;;;;;;;2.18;82.75;99072.59;5094979;28;20493;-71
2022/01/09 08:40:24;;;;;;;0.40;0.20;;;;;;;2.19;82.45;99079.53;5094581;28;20858;-70
2022/01/09 08:42:53;;;;;;;0.40;0.30;;;;;;;2.20;82.47;99077.66;5094452;28;20840;-71
2022/01/09 08:45:20;;;;;;;0.40;0.40;;;;;;;2.30;81.62;99080.22;5094844;28;20531;-71
2022/01/09 08:47:47;;;;;;;0.40;0.30;;;;;;;2.32;81.81;99074.59;5094763;28;20441;-71
2022/01/09 08:50:17;;;;;;;0.40;0.30;;;;;;;2.39;81.82;99078.53;5094872;28;20466;-71
2022/01/09 08:52:43;;;;;;;0.40;0.30;;;;;;;2.43;82.07;99076.06;5094665;28;20471;-71
2022/01/09 08:55:13;;;;;;;0.40;0.30;;;;;;;2.48;82.09;99076.81;5094614;28;20484;-71
2022/01/09 08:57:39;;;;;;;0.40;0.30;;;;;;;2.48;81.39;99081.38;5094622;28;20444;-71
2022/01/09 09:00:08;;;;;;;0.40;0.30;;;;;;;2.50;81.67;99084.53;5094594;28;20440;-72
2022/01/09 09:02:34;;;;;;;0.40;0.30;;;;;;;2.59;81.87;99082.84;5094361;28;20479;-71
2022/01/09 09:05:00;;;;;;;0.40;0.30;;;;;;;2.66;81.55;99080.63;5094430;28;20459;-72
2022/01/09 09:07:27;;;;;;;0.40;0.30;;;;;;;2.61;81.06;99085.22;5094488;28;20440;-71
2022/01/09 09:09:53;;;;;;;0.40;0.30;;;;;;;2.63;80.58;99088.41;5094330;28;20452;-70
2022/01/09 09:12:21;;;;;;;0.40;0.30;;;;;;;2.61;80.86;99080.69;5093816;28;20456;-73
2022/01/09 09:14:48;;;;;;;0.40;0.30;;;;;;;2.70;80.76;99095.00;5094313;28;20484;-72
2022/01/09 09:17:15;;;;;;;70.20;14.90;;;;;;;2.71;80.72;99093.94;5094171;28;20466;-72
2022/01/09 09:19:41;;;;;;;0.40;0.20;;;;;;;2.79;80.76;99103.19;5093907;28;20455;-72
2022/01/09 09:22:08;;;;;;;0.40;0.30;;;;;;;2.67;80.25;99097.47;5093807;28;20468;-71
2022/01/09 09:24:35;;;;;;;0.40;0.30;;;;;;;2.77;79.86;99100.78;5094055;28;20447;-71
2022/01/09 09:27:01;;;;;;;9.77;8.90;;;;;;;2.77;80.54;99095.44;5094061;28;20459;-71
2022/01/09 09:29:29;;;;;;;0.40;0.30;;;;;;;2.81;80.62;99108.25;5094030;28;20444;-71
2022/01/09 09:31:56;;;;;;;0.40;0.30;;;;;;;2.78;80.38;99112.28;5093857;28;20835;-71
2022/01/09 09:34:22;;;;;;;0.40;0.30;;;;;;;2.91;79.94;99116.13;5094030;28;20448;-70
2022/01/09 09:36:49;;;;;;;0.40;0.30;;;;;;;2.91;81.08;99121.47;5093618;28;20448;-71
2022/01/09 09:39:15;;;;;;;0.40;0.30;;;;;;;2.98;79.75;99119.25;5093875;28;20532;-70
2022/01/09 09:41:42;;;;;;;0.40;0.30;;;;;;;3.00;78.41;99125.13;5093763;28;20440;-70
2022/01/09 09:44:09;;;;;;;0.40;0.30;;;;;;;2.89;77.96;99123.66;5093712;28;20440;-73
2022/01/09 09:46:37;;;;;;;0.40;0.30;;;;;;;2.92;78.10;99121.22;5093779;28;20466;-74
2022/01/09 09:49:05;;;;;;;0.40;0.30;;;;;;;2.97;78.08;99129.16;5093441;28;20451;-71
2022/01/09 09:51:31;;;;;;;0.40;0.30;;;;;;;3.02;78.12;99125.63;5093763;28;20443;-70
2022/01/09 09:53:59;;;;;;;0.40;0.30;;;;;;;3.00;77.99;99117.88;5093570;28;20465;-68
2022/01/09 09:56:25;;;;;;;0.50;0.30;;;;;;;3.05;77.27;99114.34;5093559;28;20483;-68
2022/01/09 09:58:52;;;;;;;0.40;0.30;;;;;;;3.07;78.33;99109.53;5092633;28;20455;-68
2022/01/09 10:01:23;;;;;;;0.40;0.20;;;;;;;3.02;78.84;99112.25;5093546;28;20432;-68
2022/01/09 10:03:57;;;;;;;0.40;0.30;;;;;;;3.03;79.24;99108.50;5092987;28;20472;-68
2022/01/09 10:06:34;;;;;;;0.40;0.30;;;;;;;3.11;78.59;99121.25;5093480;28;20429;-68
2022/01/09 10:09:06;;;;;;;0.40;0.20;;;;;;;3.17;78.97;99120.06;5093521;28;20445;-68
2022/01/09 10:11:45;;;;;;;0.40;0.30;;;;;;;3.22;78.67;99130.69;5093696;28;20463;-68
2022/01/09 10:14:13;;;;;;;0.40;0.30;;;;;;;3.23;78.87;99124.28;5093456;28;20431;-68
2022/01/09 10:16:39;;;;;;;0.40;0.30;;;;;;;3.29;78.37;99125.00;5093330;28;20487;-68
2022/01/09 10:19:08;;;;;;;0.40;0.20;;;;;;;3.24;77.68;99131.22;5093317;28;20865;-67
2022/01/09 10:21:34;;;;;;;0.40;0.30;;;;;;;3.28;77.23;99128.78;5093494;28;20444;-68
2022/01/09 10:24:03;;;;;;;0.40;0.30;;;;;;;3.32;76.97;99120.94;5094260;28;20447;-68
2022/01/09 10:26:31;;;;;;;0.40;0.20;;;;;;;3.37;77.10;99126.25;5097554;28;20428;-67
2022/01/09 10:28:57;;;;;;;0.40;0.30;;;;;;;3.43;77.00;99128.56;5097457;28;20444;-68
2022/01/09 10:31:26;;;;;;;0.40;0.30;;;;;;;3.35;77.61;99131.06;5097634;28;20444;-68
2022/01/09 10:34:03;;;;;;;0.40;0.30;;;;;;;3.41;77.49;99132.59;5097014;28;21060;-68
2022/01/09 10:36:36;;;;;;;0.40;0.30;;;;;;;3.40;77.42;99139.03;5097307;28;20475;-68
2022/01/09 10:39:06;;;;;;;0.40;0.30;;;;;;;3.44;77.52;99132.03;5097276;28;20436;-67
2022/01/09 10:41:45;;;;;;;0.40;0.30;;;;;;;3.48;77.24;99135.72;5097229;28;20444;-68
2022/01/09 10:44:16;;;;;;;0.40;0.30;;;;;;;3.49;76.94;99126.59;5097206;28;20857;-68
2022/01/09 10:46:53;;;;;;;0.40;0.20;;;;;;;3.51;77.93;99127.09;5097159;28;20432;-68
2022/01/09 10:49:20;;;;;;;0.40;0.30;;;;;;;3.51;77.47;99125.22;5097170;28;20457;-68
2022/01/09 10:51:48;;;;;;;0.40;0.20;;;;;;;3.53;77.67;99132.94;5096958;28;20448;-68
2022/01/09 10:54:28;;;;;;;0.40;0.20;;;;;;;3.58;78.02;99121.38;5096943;28;20436;-67
2022/01/09 10:57:09;;;;;;;0.40;0.30;;;;;;;3.54;78.39;99129.19;5096870;28;20465;-68
2022/01/09 10:59:36;;;;;;;0.40;0.20;;;;;;;3.56;78.34;99142.31;5096936;28;20424;-68
2022/01/09 11:02:03;;;;;;;0.40;0.30;;;;;;;3.63;77.91;99137.34;5096253;28;20883;-68
2022/01/09 11:04:30;;;;;;;0.40;0.30;;;;;;;3.61;77.72;99139.53;5096872;28;20428;-68
2022/01/09 11:06:59;;;;;;;0.40;0.30;;;;;;;3.66;77.82;99142.94;5096577;28;20998;-68
2022/01/09 11:09:28;;;;;;;0.40;0.40;;;;;;;3.70;77.16;99146.63;5096409;28;20433;-68
2022/01/09 11:11:56;;;;;;;0.40;0.30;;;;;;;3.68;77.18;99140.78;5096252;28;20851;-68
2022/01/09 11:14:24;;;;;;;0.40;0.30;;;;;;;3.71;77.10;99150.88;5096619;28;20539;-69
2022/01/09 11:16:53;;;;;;;0.40;0.20;;;;;;;3.71;77.46;99150.88;5096440;28;20520;-68
2022/01/09 11:19:22;;;;;;;0.40;0.30;;;;;;;3.79;77.41;99147.56;5096189;28;20462;-70
2022/01/09 11:21:50;;;;;;;0.40;0.30;;;;;;;3.85;77.52;99147.47;5096449;28;20527;-70
2022/01/09 11:24:56;;;;;;;0.40;0.30;;;;;;;3.90;78.00;99148.22;5096160;28;20531;-69
2022/01/09 11:27:32;;;;;;;0.40;0.30;;;;;;;3.92;78.71;99148.69;5054694;28;20964;-67
2022/01/09 11:30:09;;;;;;;0.40;0.30;;;;;;;3.89;77.79;99151.16;5095719;28;20499;-69
2022/01/09 11:32:45;;;;;;;0.40;0.30;;;;;;;3.96;77.94;99156.94;5095602;28;20474;-69
2022/01/09 11:35:20;;;;;;;0.40;0.30;;;;;;;4.07;77.35;99153.00;5094832;28;20973;-69
2022/01/09 11:38:00;;;;;;;1.00;0.97;;;;;;;4.17;77.65;99152.84;5095271;28;20438;-69
2022/01/09 11:40:30;;;;;;;0.40;0.20;;;;;;;4.20;77.30;99152.25;5095618;28;20481;-69
2022/01/09 11:43:01;;;;;;;0.40;0.30;;;;;;;4.28;76.47;99148.88;5095384;28;20456;-69